createdAt,value
2017-03-15T00:00:54.853Z,25.70
2017-03-15T00:01:53.782Z,25.62
2017-03-15T00:02:52.795Z,25.67
2017-03-15T00:03:51.667Z,22.72
2017-03-15T00:04:50.821Z,24.20
2017-03-15T00:05:50.707Z,26.27
2017-03-15T00:06:49.697Z,26.15
2017-03-15T00:07:48.585Z,24.05
2017-03-15T00:08:47.886Z,23.70
2017-03-15T00:09:46.581Z,24.77
2017-03-15T00:10:45.160Z,24.73
2017-03-15T00:11:44.631Z,27.40
2017-03-15T00:12:44.302Z,26.57
2017-03-15T00:13:43.674Z,29.67
2017-03-15T00:14:42.700Z,26.98
2017-03-15T00:15:41.685Z,29.30
2017-03-15T00:16:40.749Z,28.07
2017-03-15T00:17:40.465Z,27.77
2017-03-15T00:18:39.552Z,27.67
2017-03-15T00:19:38.159Z,29.83
2017-03-15T00:20:37.180Z,30.02
2017-03-15T00:21:36.225Z,27.57
2017-03-15T00:22:35.320Z,30.13
2017-03-15T00:23:34.663Z,29.63
2017-03-15T00:24:33.234Z,28.70
2017-03-15T00:25:31.871Z,31.30
2017-03-15T00:26:30.861Z,33.57
2017-03-15T00:27:29.843Z,32.00
2017-03-15T00:28:28.449Z,33.68
2017-03-15T00:29:28.883Z,32.15
2017-03-15T00:30:27.932Z,34.83
2017-03-15T00:31:26.920Z,33.75
2017-03-15T00:32:26.329Z,33.95
2017-03-15T00:33:24.877Z,33.65
2017-03-15T00:34:23.474Z,34.12
2017-03-15T00:35:22.347Z,33.52
2017-03-15T00:36:20.946Z,33.38
2017-03-15T00:37:19.605Z,34.58
2017-03-15T00:38:18.595Z,31.90
2017-03-15T00:39:17.643Z,31.98
2017-03-15T00:40:16.609Z,31.35
2017-03-15T00:41:15.958Z,30.77
2017-03-15T00:42:15.009Z,30.92
2017-03-15T00:43:13.982Z,30.72
2017-03-15T00:44:12.968Z,31.67
2017-03-15T00:45:12.005Z,31.23
2017-03-15T00:46:11.005Z,34.28
2017-03-15T00:47:09.939Z,35.20
2017-03-15T00:48:08.602Z,35.57
2017-03-15T00:49:07.573Z,31.88
2017-03-15T00:50:06.612Z,31.57
2017-03-15T00:51:05.562Z,34.63
2017-03-15T00:52:04.593Z,38.45
2017-03-15T00:53:03.949Z,36.73
2017-03-15T00:54:02.545Z,37.72
2017-03-15T00:55:01.577Z,38.58
2017-03-15T00:56:00.238Z,38.77
2017-03-15T00:56:59.219Z,40.22
2017-03-15T00:57:57.878Z,41.45
2017-03-15T00:58:57.178Z,38.77
2017-03-15T00:59:56.172Z,36.98
2017-03-15T01:00:55.183Z,39.58
2017-03-15T01:01:54.253Z,40.42
2017-03-15T01:02:53.705Z,38.63
2017-03-15T01:03:52.726Z,38.90
2017-03-15T01:04:52.155Z,38.60
2017-03-15T01:05:50.831Z,41.12
2017-03-15T01:06:49.895Z,40.60
2017-03-15T01:07:49.596Z,40.22
2017-03-15T01:08:48.373Z,41.48
2017-03-15T01:09:47.379Z,42.40
2017-03-15T01:10:46.563Z,41.60
2017-03-15T01:11:45.541Z,41.22
2017-03-15T01:12:44.577Z,41.77
2017-03-15T01:13:43.562Z,41.42
2017-03-15T01:14:42.668Z,41.68
2017-03-15T01:15:48.222Z,41.45
2017-03-15T01:16:46.965Z,42.95
2017-03-15T01:17:46.022Z,42.08
2017-03-15T01:18:45.117Z,41.67
2017-03-15T01:19:44.278Z,42.40
2017-03-15T01:20:43.497Z,41.90
2017-03-15T01:21:42.639Z,41.23
2017-03-15T01:22:44.387Z,41.00
2017-03-15T01:23:44.628Z,41.90
2017-03-15T01:24:43.665Z,42.25
2017-03-15T01:25:43.524Z,42.35
2017-03-15T01:26:42.859Z,43.38
2017-03-15T01:27:41.862Z,38.42
2017-03-15T01:28:42.473Z,44.02
2017-03-15T01:29:41.830Z,41.48
2017-03-15T01:30:40.489Z,41.67
2017-03-15T01:31:39.539Z,39.88
2017-03-15T01:32:38.734Z,39.45
2017-03-15T01:33:37.843Z,39.55
2017-03-15T01:34:36.890Z,38.85
2017-03-15T01:36:04.556Z,39.58
2017-03-15T01:37:03.181Z,39.65
2017-03-15T01:38:02.510Z,39.53
2017-03-15T01:39:01.574Z,39.50
2017-03-15T01:40:00.227Z,41.42
2017-03-15T01:40:59.871Z,39.28
2017-03-15T01:41:59.387Z,39.85
2017-03-15T01:43:02.633Z,38.03
2017-03-15T01:44:01.729Z,40.92
2017-03-15T01:45:00.999Z,40.07
2017-03-15T01:45:59.982Z,39.65
2017-03-15T01:46:59.319Z,38.80
2017-03-15T01:47:58.308Z,39.02
2017-03-15T01:48:57.646Z,38.98
2017-03-15T01:49:56.246Z,41.17
2017-03-15T01:50:55.203Z,39.72
2017-03-15T01:51:53.739Z,39.12
2017-03-15T01:52:52.657Z,38.65
2017-03-15T01:53:51.573Z,39.08
2017-03-15T01:54:50.932Z,39.95
2017-03-15T01:55:49.853Z,38.52
2017-03-15T01:56:48.749Z,40.22
2017-03-15T01:57:47.678Z,39.80
2017-03-15T01:58:46.594Z,39.12
2017-03-15T01:59:45.523Z,38.90
2017-03-15T02:00:44.417Z,40.25
2017-03-15T02:01:43.336Z,40.42
2017-03-15T02:02:42.236Z,38.55
2017-03-15T02:03:41.136Z,38.02
2017-03-15T02:04:40.051Z,40.25
2017-03-15T02:05:39.002Z,39.62
2017-03-15T02:06:38.305Z,36.30
2017-03-15T02:07:36.869Z,38.00
2017-03-15T02:08:35.763Z,38.23
2017-03-15T02:09:34.648Z,39.38
2017-03-15T02:10:33.553Z,37.77
2017-03-15T02:11:32.449Z,36.45
2017-03-15T02:12:31.613Z,35.38
2017-03-15T02:13:30.521Z,36.45
2017-03-15T02:14:29.421Z,37.28
2017-03-15T02:15:28.338Z,39.70
2017-03-15T02:16:27.213Z,38.33
2017-03-15T02:17:25.737Z,41.03
2017-03-15T02:18:24.971Z,39.48
2017-03-15T02:19:23.858Z,37.22
2017-03-15T02:20:22.401Z,37.97
2017-03-15T02:21:21.346Z,38.52
2017-03-15T02:22:20.277Z,40.02
2017-03-15T02:23:19.213Z,40.38
2017-03-15T02:24:18.398Z,39.20
2017-03-15T02:25:17.336Z,37.33
2017-03-15T02:26:15.856Z,39.80
2017-03-15T02:27:14.775Z,37.67
2017-03-15T02:28:13.305Z,38.37
2017-03-15T02:29:12.226Z,37.35
2017-03-15T02:30:11.537Z,38.57
2017-03-15T02:31:10.840Z,38.38
2017-03-15T02:32:09.760Z,40.32
2017-03-15T02:33:08.663Z,37.82
2017-03-15T02:34:07.616Z,39.03
2017-03-15T02:35:06.541Z,39.03
2017-03-15T02:36:05.837Z,39.03
2017-03-15T02:37:04.397Z,38.87
2017-03-15T02:38:03.358Z,38.53
2017-03-15T02:39:02.264Z,37.97
2017-03-15T02:40:01.186Z,38.67
2017-03-15T02:41:00.144Z,40.10
2017-03-15T02:41:59.023Z,40.82
2017-03-15T02:42:57.581Z,41.08
2017-03-15T02:43:56.501Z,39.08
2017-03-15T02:44:55.040Z,40.48
2017-03-15T02:45:54.332Z,38.27
2017-03-15T02:46:53.700Z,41.12
2017-03-15T02:47:52.908Z,41.05
2017-03-15T02:48:51.480Z,41.60
2017-03-15T02:49:50.434Z,42.82
2017-03-15T02:50:49.401Z,41.82
2017-03-15T02:51:48.336Z,40.55
2017-03-15T02:52:47.305Z,39.12
2017-03-15T02:53:46.094Z,42.25
2017-03-15T02:54:45.053Z,40.10
2017-03-15T02:55:43.957Z,40.98
2017-03-15T02:56:42.467Z,37.92
2017-03-15T02:57:41.439Z,43.40
2017-03-15T02:58:40.356Z,41.58
2017-03-15T02:59:39.620Z,43.48
2017-03-15T03:00:38.563Z,40.90
2017-03-15T03:01:37.161Z,43.17
2017-03-15T03:02:36.084Z,41.60
2017-03-15T03:03:35.024Z,42.23
2017-03-15T03:04:33.561Z,42.40
2017-03-15T03:05:32.453Z,43.90
2017-03-15T03:06:31.423Z,39.73
2017-03-15T03:07:30.722Z,38.98
2017-03-15T03:08:29.669Z,39.93
2017-03-15T03:09:28.581Z,41.65
2017-03-15T03:10:27.556Z,40.07
2017-03-15T03:11:26.864Z,40.37
2017-03-15T03:12:25.829Z,38.63
2017-03-15T03:13:24.481Z,37.73
2017-03-15T03:14:23.385Z,39.38
2017-03-15T03:15:22.319Z,37.17
2017-03-15T03:16:21.320Z,34.40
2017-03-15T03:17:20.541Z,36.60
2017-03-15T03:18:19.477Z,36.17
2017-03-15T03:19:18.521Z,34.78
2017-03-15T03:20:17.121Z,33.40
2017-03-15T03:21:15.694Z,35.43
2017-03-15T03:22:14.253Z,32.68
2017-03-15T03:23:13.511Z,34.87
2017-03-15T03:24:12.419Z,36.03
2017-03-15T03:25:10.921Z,35.42
2017-03-15T03:26:09.901Z,35.65
2017-03-15T03:27:08.856Z,38.70
2017-03-15T03:28:07.372Z,36.30
2017-03-15T03:29:06.575Z,37.85
2017-03-15T03:30:05.494Z,37.67
2017-03-15T03:31:04.452Z,35.70
2017-03-15T03:32:03.391Z,35.75
2017-03-15T03:33:02.315Z,34.75
2017-03-15T03:34:01.244Z,35.50
2017-03-15T03:35:00.491Z,35.47
2017-03-15T03:35:59.812Z,38.55
2017-03-15T03:36:58.741Z,36.15
2017-03-15T03:37:57.680Z,37.93
2017-03-15T03:38:56.653Z,38.60
2017-03-15T03:39:55.640Z,38.10
2017-03-15T03:40:54.431Z,37.65
2017-03-15T03:41:53.347Z,39.35
2017-03-15T03:42:52.265Z,37.15
2017-03-15T03:43:51.195Z,40.93
2017-03-15T03:44:50.157Z,39.98
2017-03-15T03:45:49.080Z,37.23
2017-03-15T03:46:48.287Z,40.97
2017-03-15T03:47:47.220Z,40.80
2017-03-15T03:48:46.118Z,38.07
2017-03-15T03:49:45.017Z,38.23
2017-03-15T03:50:43.925Z,40.23
2017-03-15T03:51:42.451Z,39.23
2017-03-15T03:52:41.688Z,39.80
2017-03-15T03:53:40.574Z,38.72
2017-03-15T03:54:39.480Z,39.30
2017-03-15T03:55:38.412Z,37.20
2017-03-15T03:56:37.348Z,38.67
2017-03-15T03:57:36.280Z,38.28
2017-03-15T03:58:35.156Z,38.22
2017-03-15T03:59:34.131Z,39.50
2017-03-15T04:00:33.431Z,37.93
2017-03-15T04:01:32.424Z,39.73
2017-03-15T04:02:31.353Z,38.27
2017-03-15T04:03:30.289Z,38.05
2017-03-15T04:04:29.565Z,38.22
2017-03-15T04:05:28.094Z,36.57
2017-03-15T04:06:26.633Z,37.12
2017-03-15T04:07:25.531Z,36.45
2017-03-15T04:08:24.075Z,35.45
2017-03-15T04:09:23.003Z,36.17
2017-03-15T04:10:22.216Z,36.73
2017-03-15T04:11:20.761Z,36.10
2017-03-15T04:12:19.740Z,36.50
2017-03-15T04:13:18.732Z,38.30
2017-03-15T04:14:17.653Z,35.42
2017-03-15T04:15:16.590Z,33.80
2017-03-15T04:16:15.810Z,35.30
2017-03-15T04:17:14.878Z,38.72
2017-03-15T04:18:13.417Z,35.97
2017-03-15T04:19:12.319Z,34.47
2017-03-15T04:20:11.279Z,36.48
2017-03-15T04:21:10.213Z,35.07
2017-03-15T04:22:09.408Z,34.73
2017-03-15T04:23:08.689Z,34.65
2017-03-15T04:24:07.337Z,35.37
2017-03-15T04:25:06.285Z,35.53
2017-03-15T04:26:04.829Z,34.28
2017-03-15T04:27:03.782Z,35.33
2017-03-15T04:28:03.057Z,35.17
2017-03-15T04:29:01.580Z,33.90
2017-03-15T04:30:00.506Z,36.32
2017-03-15T04:30:59.446Z,34.98
2017-03-15T04:31:58.460Z,34.57
2017-03-15T04:32:57.402Z,34.82
2017-03-15T04:33:56.590Z,36.62
2017-03-15T04:34:55.490Z,35.42
2017-03-15T04:35:54.396Z,33.93
2017-03-15T04:36:53.321Z,33.23
2017-03-15T04:37:51.817Z,33.23
2017-03-15T04:38:50.725Z,32.05
2017-03-15T04:39:49.976Z,34.45
2017-03-15T04:40:48.503Z,31.85
2017-03-15T04:41:47.442Z,33.52
2017-03-15T04:42:46.414Z,32.77
2017-03-15T04:43:45.345Z,31.72
2017-03-15T04:44:44.233Z,34.25
2017-03-15T04:45:43.465Z,34.50
2017-03-15T04:46:42.369Z,33.78
2017-03-15T04:47:41.272Z,34.88
2017-03-15T04:48:40.316Z,30.87
2017-03-15T04:49:38.820Z,31.93
2017-03-15T04:50:37.735Z,33.52
2017-03-15T04:51:36.920Z,33.42
2017-03-15T04:52:35.840Z,33.12
2017-03-15T04:53:34.851Z,31.32
2017-03-15T04:54:33.761Z,32.98
2017-03-15T04:55:32.290Z,32.35
2017-03-15T04:56:30.785Z,32.65
2017-03-15T04:57:30.019Z,33.82
2017-03-15T04:58:29.021Z,32.38
2017-03-15T04:59:27.938Z,33.47
2017-03-15T05:00:26.872Z,32.32
2017-03-15T05:01:25.777Z,31.95
2017-03-15T05:02:24.306Z,29.65
2017-03-15T05:03:23.500Z,32.25
2017-03-15T05:04:22.412Z,35.82
2017-03-15T05:05:20.905Z,31.60
2017-03-15T05:06:19.784Z,35.47
2017-03-15T05:07:18.714Z,32.68
2017-03-15T05:08:17.234Z,31.68
2017-03-15T05:09:16.021Z,32.75
2017-03-15T05:10:14.955Z,32.60
2017-03-15T05:11:14.861Z,33.35
2017-03-15T05:12:13.784Z,31.20
2017-03-15T05:13:12.692Z,32.18
2017-03-15T05:14:11.221Z,32.47
2017-03-15T05:15:10.407Z,32.10
2017-03-15T05:16:09.392Z,34.75
2017-03-15T05:17:08.268Z,36.72
2017-03-15T05:18:07.192Z,32.62
2017-03-15T05:19:06.135Z,33.33
2017-03-15T05:20:05.118Z,32.62
2017-03-15T05:21:04.381Z,34.05
2017-03-15T05:22:03.286Z,34.28
2017-03-15T05:23:02.211Z,33.08
2017-03-15T05:24:01.092Z,32.93
2017-03-15T05:25:00.004Z,32.35
2017-03-15T05:25:58.945Z,32.35
2017-03-15T05:26:58.175Z,33.92
2017-03-15T05:27:57.085Z,33.55
2017-03-15T05:28:56.018Z,32.33
2017-03-15T05:29:54.957Z,30.97
2017-03-15T05:30:53.899Z,32.38
2017-03-15T05:31:52.828Z,30.78
2017-03-15T05:32:51.765Z,31.08
2017-03-15T05:33:50.677Z,33.35
2017-03-15T05:34:49.616Z,30.47
2017-03-15T05:35:48.564Z,31.50
2017-03-15T05:36:47.503Z,30.03
2017-03-15T05:37:46.437Z,32.55
2017-03-15T05:38:45.346Z,33.65
2017-03-15T05:39:44.288Z,31.03
2017-03-15T05:40:42.825Z,31.97
2017-03-15T05:41:41.744Z,32.85
2017-03-15T05:42:40.633Z,33.67
2017-03-15T05:43:39.543Z,31.97
2017-03-15T05:44:38.730Z,32.00
2017-03-15T05:45:38.015Z,34.48
2017-03-15T05:46:36.557Z,36.78
2017-03-15T05:47:35.461Z,34.33
2017-03-15T05:48:34.373Z,35.35
2017-03-15T05:49:33.272Z,36.05
2017-03-15T05:50:32.472Z,35.78
2017-03-15T05:51:31.385Z,35.48
2017-03-15T05:52:30.301Z,34.15
2017-03-15T05:53:29.213Z,36.48
2017-03-15T05:54:28.097Z,37.55
2017-03-15T05:55:27.080Z,38.27
2017-03-15T05:56:26.324Z,36.48
2017-03-15T05:57:28.129Z,34.72
2017-03-15T05:58:27.065Z,34.07
2017-03-15T05:59:25.981Z,36.72
2017-03-15T06:00:24.871Z,35.17
2017-03-15T06:01:23.768Z,35.23
2017-03-15T06:02:23.089Z,36.82
2017-03-15T06:03:21.994Z,36.02
2017-03-15T06:04:20.936Z,36.75
2017-03-15T06:05:19.445Z,36.08
2017-03-15T06:06:18.370Z,38.67
2017-03-15T06:07:17.338Z,35.63
2017-03-15T06:08:16.564Z,33.78
2017-03-15T06:09:15.498Z,32.75
2017-03-15T06:10:14.437Z,31.08
2017-03-15T06:11:14.258Z,32.27
2017-03-15T06:12:13.171Z,32.48
2017-03-15T06:13:12.076Z,34.57
2017-03-15T06:14:11.434Z,36.10
2017-03-15T06:15:10.385Z,33.25
2017-03-15T06:16:09.305Z,32.63
2017-03-15T06:17:08.276Z,35.50
2017-03-15T06:18:07.210Z,34.78
2017-03-15T06:19:06.120Z,33.80
2017-03-15T06:20:05.319Z,34.55
2017-03-15T06:21:04.263Z,31.87
2017-03-15T06:22:03.168Z,31.95
2017-03-15T06:23:02.077Z,33.50
2017-03-15T06:24:00.989Z,34.07
2017-03-15T06:25:00.030Z,32.23
2017-03-15T06:25:59.278Z,31.43
2017-03-15T06:26:57.809Z,32.60
2017-03-15T06:27:56.317Z,31.03
2017-03-15T06:28:55.222Z,32.90
2017-03-15T06:29:54.118Z,32.10
2017-03-15T06:30:52.994Z,32.22
2017-03-15T06:31:52.188Z,34.07
2017-03-15T06:32:51.076Z,33.00
2017-03-15T06:33:49.982Z,34.97
2017-03-15T06:34:48.891Z,33.12
2017-03-15T06:35:47.592Z,34.33
2017-03-15T06:36:46.102Z,33.53
2017-03-15T06:37:45.331Z,34.38
2017-03-15T06:38:44.220Z,36.03
2017-03-15T06:39:43.175Z,33.62
2017-03-15T06:40:42.088Z,36.58
2017-03-15T06:41:40.597Z,38.37
2017-03-15T06:42:39.599Z,38.32
2017-03-15T06:43:40.454Z,37.52
2017-03-15T06:44:39.382Z,36.72
2017-03-15T06:45:38.317Z,35.65
2017-03-15T06:46:37.212Z,36.22
2017-03-15T06:47:35.727Z,36.50
2017-03-15T06:48:34.635Z,36.78
2017-03-15T06:49:33.536Z,36.55
2017-03-15T06:50:32.415Z,36.55
2017-03-15T06:51:31.352Z,36.18
2017-03-15T06:52:30.290Z,36.68
2017-03-15T06:53:29.221Z,35.33
2017-03-15T06:54:28.118Z,35.23
2017-03-15T06:55:27.424Z,34.13
2017-03-15T06:56:25.982Z,34.40
2017-03-15T06:57:24.878Z,35.92
2017-03-15T06:58:23.407Z,35.35
2017-03-15T06:59:22.335Z,35.77
2017-03-15T07:00:21.320Z,33.95
2017-03-15T07:01:20.549Z,35.20
2017-03-15T07:02:21.879Z,34.93
2017-03-15T07:03:21.693Z,34.48
2017-03-15T07:04:20.590Z,34.58
2017-03-15T07:05:19.528Z,34.27
2017-03-15T07:06:18.452Z,37.40
2017-03-15T07:07:17.681Z,35.55
2017-03-15T07:08:17.911Z,32.77
2017-03-15T07:09:16.914Z,33.15
2017-03-15T07:10:15.838Z,33.77
2017-03-15T07:11:14.730Z,36.13
2017-03-15T07:12:13.782Z,35.48
2017-03-15T07:13:13.001Z,33.58
2017-03-15T07:14:11.525Z,36.60
2017-03-15T07:15:10.476Z,36.95
2017-03-15T07:16:09.402Z,35.80
2017-03-15T07:17:08.293Z,36.33
2017-03-15T07:18:07.192Z,37.90
2017-03-15T07:19:06.493Z,38.72
2017-03-15T07:20:05.785Z,39.75
2017-03-15T07:21:04.881Z,38.23
2017-03-15T07:22:03.457Z,37.52
2017-03-15T07:23:02.455Z,38.73
2017-03-15T07:24:01.858Z,36.90
2017-03-15T07:25:00.876Z,37.50
2017-03-15T07:26:06.859Z,39.22
2017-03-15T07:27:05.798Z,39.00
2017-03-15T07:28:04.732Z,38.00
2017-03-15T07:29:03.652Z,36.92
2017-03-15T07:30:02.985Z,35.75
2017-03-15T07:31:01.926Z,39.03
2017-03-15T07:32:00.881Z,38.13
2017-03-15T07:32:59.835Z,37.47
2017-03-15T07:33:58.935Z,38.75
2017-03-15T07:34:57.881Z,38.22
2017-03-15T07:35:57.194Z,38.45
2017-03-15T07:36:56.164Z,39.57
2017-03-15T07:37:55.090Z,39.47
2017-03-15T07:38:54.035Z,37.00
2017-03-15T07:39:52.686Z,37.75
2017-03-15T07:40:51.654Z,39.25
2017-03-15T07:41:50.965Z,39.75
2017-03-15T07:42:49.930Z,38.57
2017-03-15T07:43:48.913Z,37.27
2017-03-15T07:44:47.861Z,36.73
2017-03-15T07:45:46.858Z,37.50
2017-03-15T07:46:46.791Z,38.03
2017-03-15T07:47:46.001Z,36.60
2017-03-15T07:48:45.385Z,38.88
2017-03-15T07:49:44.691Z,36.68
2017-03-15T07:50:44.887Z,35.25
2017-03-15T07:51:43.830Z,38.18
2017-03-15T07:52:42.777Z,38.02
2017-03-15T07:53:41.585Z,38.05
2017-03-15T07:54:40.670Z,37.88
2017-03-15T07:55:39.608Z,37.37
2017-03-15T07:56:39.690Z,39.15
2017-03-15T07:57:39.105Z,39.57
2017-03-15T07:58:41.993Z,38.18
2017-03-15T07:59:41.092Z,36.85
2017-03-15T08:00:41.303Z,37.62
2017-03-15T08:01:40.243Z,36.37
2017-03-15T08:02:45.041Z,38.07
2017-03-15T08:03:44.793Z,35.63
2017-03-15T08:04:43.752Z,37.03
2017-03-15T08:05:42.682Z,35.83
2017-03-15T08:06:41.653Z,36.47
2017-03-15T08:07:40.671Z,35.35
2017-03-15T08:08:39.637Z,35.63
2017-03-15T08:09:39.081Z,36.00
2017-03-15T08:10:38.181Z,36.05
2017-03-15T08:11:37.109Z,36.32
2017-03-15T08:12:36.034Z,36.87
2017-03-15T08:13:35.063Z,35.00
2017-03-15T08:14:34.047Z,35.13
2017-03-15T08:15:33.289Z,35.25
2017-03-15T08:16:32.230Z,34.98
2017-03-15T08:17:31.158Z,35.47
2017-03-15T08:18:30.092Z,34.13
2017-03-15T08:19:29.040Z,33.62
2017-03-15T08:20:33.333Z,34.37
2017-03-15T08:21:31.841Z,36.52
2017-03-15T08:22:30.913Z,36.53
2017-03-15T08:23:29.866Z,35.32
2017-03-15T08:24:28.790Z,35.52
2017-03-15T08:25:27.684Z,37.62
2017-03-15T08:26:26.980Z,36.60
2017-03-15T08:27:26.032Z,36.07
2017-03-15T08:28:24.981Z,37.55
2017-03-15T08:29:23.929Z,36.98
2017-03-15T08:30:22.840Z,36.65
2017-03-15T08:31:22.172Z,35.70
2017-03-15T08:32:21.522Z,36.10
2017-03-15T08:33:20.059Z,35.65
2017-03-15T08:34:18.966Z,35.48
2017-03-15T08:35:18.273Z,34.93
2017-03-15T08:36:17.184Z,36.73
2017-03-15T08:37:16.096Z,35.33
2017-03-15T08:38:15.411Z,36.65
2017-03-15T08:39:14.322Z,30.95
2017-03-15T08:40:12.872Z,33.33
2017-03-15T08:41:11.807Z,33.92
2017-03-15T08:42:10.713Z,33.73
2017-03-15T08:43:09.636Z,37.77
2017-03-15T08:44:09.003Z,35.63
2017-03-15T08:45:07.522Z,34.18
2017-03-15T08:46:06.416Z,34.57
2017-03-15T08:47:05.508Z,32.95
2017-03-15T08:48:04.481Z,34.13
2017-03-15T08:49:03.365Z,34.70
2017-03-15T08:50:02.598Z,34.55
2017-03-15T08:51:01.512Z,38.17
2017-03-15T08:52:00.411Z,33.95
2017-03-15T08:52:59.317Z,35.65
2017-03-15T08:53:58.200Z,34.80
2017-03-15T08:54:57.129Z,34.65
2017-03-15T08:55:55.913Z,34.90
2017-03-15T08:56:54.836Z,32.10
2017-03-15T08:57:53.399Z,36.77
2017-03-15T08:58:52.369Z,33.67
2017-03-15T08:59:51.282Z,32.80
2017-03-15T09:00:49.903Z,36.10
2017-03-15T09:01:49.163Z,33.43
2017-03-15T09:02:47.872Z,36.83
2017-03-15T09:03:46.833Z,34.05
2017-03-15T09:04:45.778Z,34.37
2017-03-15T09:05:45.509Z,34.58
2017-03-15T09:06:44.490Z,36.23
2017-03-15T09:07:43.887Z,35.40
2017-03-15T09:08:42.849Z,34.75
2017-03-15T09:09:41.761Z,34.03
2017-03-15T09:10:40.276Z,36.63
2017-03-15T09:11:39.191Z,36.63
2017-03-15T09:12:38.241Z,36.37
2017-03-15T09:13:37.470Z,36.17
2017-03-15T09:14:36.113Z,37.42
2017-03-15T09:15:35.013Z,34.47
2017-03-15T09:16:33.529Z,35.72
2017-03-15T09:17:32.508Z,35.43
2017-03-15T09:18:31.417Z,36.08
2017-03-15T09:19:30.643Z,34.17
2017-03-15T09:20:29.581Z,34.45
2017-03-15T09:21:28.510Z,34.53
2017-03-15T09:22:27.860Z,37.15
2017-03-15T09:23:26.769Z,33.92
2017-03-15T09:24:26.505Z,34.55
2017-03-15T09:25:25.709Z,32.25
2017-03-15T09:26:24.230Z,31.80
2017-03-15T09:27:24.184Z,33.10
2017-03-15T09:28:23.128Z,34.18
2017-03-15T09:29:21.618Z,32.92
2017-03-15T09:30:20.648Z,34.80
2017-03-15T09:31:19.873Z,32.42
2017-03-15T09:32:18.905Z,32.25
2017-03-15T09:33:17.829Z,32.28
2017-03-15T09:34:16.740Z,33.33
2017-03-15T09:35:15.297Z,30.97
2017-03-15T09:36:15.204Z,31.82
2017-03-15T09:37:14.480Z,31.03
2017-03-15T09:38:13.436Z,33.05
2017-03-15T09:39:11.956Z,32.87
2017-03-15T09:40:10.889Z,32.58
2017-03-15T09:41:09.875Z,32.38
2017-03-15T09:42:08.790Z,31.00
2017-03-15T09:43:07.578Z,31.12
2017-03-15T09:44:06.180Z,30.23
2017-03-15T09:45:04.692Z,31.20
2017-03-15T09:46:03.757Z,31.48
2017-03-15T09:47:02.308Z,34.75
2017-03-15T09:48:01.288Z,28.98
2017-03-15T09:49:00.533Z,31.53
2017-03-15T09:49:59.170Z,32.95
2017-03-15T09:50:58.096Z,32.42
2017-03-15T09:51:57.044Z,31.75
2017-03-15T09:52:56.006Z,31.57
2017-03-15T09:53:54.920Z,30.53
2017-03-15T09:54:54.123Z,31.95
2017-03-15T09:55:53.016Z,31.23
2017-03-15T09:56:51.943Z,29.70
2017-03-15T09:57:50.876Z,31.87
2017-03-15T09:58:49.392Z,27.77
2017-03-15T09:59:48.304Z,30.43
2017-03-15T10:00:47.170Z,30.43
2017-03-15T10:01:46.094Z,29.50
2017-03-15T10:02:44.700Z,30.93
2017-03-15T10:03:43.615Z,29.10
2017-03-15T10:04:42.563Z,28.97
2017-03-15T10:05:41.519Z,29.05
2017-03-15T10:06:40.789Z,30.77
2017-03-15T10:07:39.688Z,29.63
2017-03-15T10:08:38.668Z,29.62
2017-03-15T10:09:37.625Z,27.87
2017-03-15T10:10:37.090Z,28.15
2017-03-15T10:11:36.000Z,27.03
2017-03-15T10:12:35.612Z,27.78
2017-03-15T10:13:34.550Z,28.82
2017-03-15T10:14:33.487Z,28.87
2017-03-15T10:15:32.388Z,28.50
2017-03-15T10:16:31.210Z,30.18
2017-03-15T10:17:30.140Z,27.87
2017-03-15T10:18:30.504Z,29.42
2017-03-15T10:19:29.491Z,29.75
2017-03-15T10:20:28.404Z,30.48
2017-03-15T10:21:27.370Z,29.65
2017-03-15T10:22:26.312Z,29.07
2017-03-15T10:23:25.245Z,30.42
2017-03-15T10:24:24.494Z,29.30
2017-03-15T10:25:23.405Z,28.60
2017-03-15T10:26:22.324Z,28.38
2017-03-15T10:27:21.266Z,28.93
2017-03-15T10:28:20.455Z,26.80
2017-03-15T10:29:20.020Z,26.58
2017-03-15T10:30:19.409Z,26.73
2017-03-15T10:31:18.344Z,25.48
2017-03-15T10:32:17.285Z,27.05
2017-03-15T10:33:16.224Z,25.35
2017-03-15T10:34:14.816Z,25.72
2017-03-15T10:35:14.046Z,27.23
2017-03-15T10:36:12.604Z,26.55
2017-03-15T10:37:11.548Z,24.43
2017-03-15T10:38:10.430Z,25.72
2017-03-15T10:39:09.427Z,25.97
2017-03-15T10:40:10.452Z,26.53
2017-03-15T10:41:09.681Z,27.02
2017-03-15T10:42:10.222Z,27.45
2017-03-15T10:43:09.135Z,27.38
2017-03-15T10:44:07.674Z,27.27
2017-03-15T10:45:06.629Z,27.82
2017-03-15T10:46:05.594Z,26.55
2017-03-15T10:47:04.911Z,24.33
2017-03-15T10:48:03.460Z,26.58
2017-03-15T10:49:01.987Z,25.85
2017-03-15T10:50:02.951Z,24.47
2017-03-15T10:51:01.885Z,26.48
2017-03-15T10:52:00.387Z,25.63
2017-03-15T10:52:59.623Z,24.63
2017-03-15T10:53:58.698Z,23.22
2017-03-15T10:54:57.631Z,21.53
2017-03-15T10:55:56.571Z,24.03
2017-03-15T10:56:55.859Z,24.80
2017-03-15T10:57:55.236Z,24.70
2017-03-15T10:58:54.138Z,23.20
2017-03-15T10:59:54.720Z,22.28
2017-03-15T11:00:53.783Z,24.85
2017-03-15T11:01:53.118Z,24.78
2017-03-15T11:02:55.328Z,24.23
2017-03-15T11:03:54.676Z,24.48
2017-03-15T11:04:53.573Z,23.05
2017-03-15T11:05:52.765Z,24.03
2017-03-15T11:06:51.679Z,23.78
2017-03-15T11:07:50.597Z,23.70
2017-03-15T11:08:49.532Z,23.85
2017-03-15T11:09:48.400Z,24.80
2017-03-15T11:10:46.945Z,25.25
2017-03-15T11:11:45.851Z,23.52
2017-03-15T11:12:44.811Z,26.80
2017-03-15T11:13:44.124Z,24.10
2017-03-15T11:14:43.069Z,23.97
2017-03-15T11:15:42.377Z,23.63
2017-03-15T11:16:41.333Z,23.33
2017-03-15T11:17:40.239Z,19.67
2017-03-15T11:18:39.579Z,21.45
2017-03-15T11:19:38.478Z,21.38
2017-03-15T11:20:37.394Z,21.53
2017-03-15T11:21:36.984Z,20.50
2017-03-15T11:22:35.916Z,21.18
2017-03-15T11:23:34.420Z,21.35
2017-03-15T11:24:33.340Z,21.63
2017-03-15T11:25:32.251Z,20.80
2017-03-15T11:26:31.155Z,20.02
2017-03-15T11:27:30.372Z,20.88
2017-03-15T11:28:29.661Z,19.42
2017-03-15T11:29:28.939Z,20.53
2017-03-15T11:30:27.452Z,20.23
2017-03-15T11:31:26.023Z,20.45
2017-03-15T11:32:24.920Z,20.50
2017-03-15T11:33:24.163Z,19.25
2017-03-15T11:34:23.090Z,20.53
2017-03-15T11:35:22.004Z,20.70
2017-03-15T11:36:20.910Z,20.32
2017-03-15T11:37:20.861Z,20.65
2017-03-15T11:38:19.768Z,19.37
2017-03-15T11:39:18.984Z,19.40
2017-03-15T11:40:18.271Z,20.52
2017-03-15T11:41:17.208Z,20.22
2017-03-15T11:42:16.109Z,19.65
2017-03-15T11:43:15.020Z,21.87
2017-03-15T11:44:14.006Z,20.07
2017-03-15T11:45:13.590Z,20.78
2017-03-15T11:46:12.532Z,19.10
2017-03-15T11:47:11.460Z,19.05
2017-03-15T11:48:10.371Z,19.37
2017-03-15T11:49:09.281Z,18.30
2017-03-15T11:50:08.195Z,19.13
2017-03-15T11:51:07.793Z,18.78
2017-03-15T11:52:06.339Z,18.15
2017-03-15T11:53:05.252Z,17.17
2017-03-15T11:54:04.528Z,18.97
2017-03-15T11:55:03.552Z,17.47
2017-03-15T11:56:02.068Z,17.78
2017-03-15T11:57:01.281Z,17.77
2017-03-15T11:58:00.572Z,17.15
2017-03-15T11:58:59.472Z,20.17
2017-03-15T11:59:57.995Z,20.53
2017-03-15T12:00:57.793Z,19.67
2017-03-15T12:01:56.704Z,18.98
2017-03-15T12:02:55.998Z,20.45
2017-03-15T12:03:54.959Z,20.32
2017-03-15T12:04:53.847Z,19.78
2017-03-15T12:05:52.806Z,19.67
2017-03-15T12:06:51.733Z,20.80
2017-03-15T12:07:50.635Z,20.02
2017-03-15T12:08:49.478Z,21.80
2017-03-15T12:09:48.735Z,19.50
2017-03-15T12:10:47.656Z,18.48
2017-03-15T12:11:46.997Z,19.50
2017-03-15T12:12:45.912Z,19.00
2017-03-15T12:13:44.812Z,20.77
2017-03-15T12:14:44.090Z,17.77
2017-03-15T12:15:43.015Z,19.43
2017-03-15T12:16:41.920Z,20.43
2017-03-15T12:17:40.862Z,21.08
2017-03-15T12:18:39.812Z,18.97
2017-03-15T12:19:39.067Z,18.12
2017-03-15T12:20:38.404Z,18.48
2017-03-15T12:21:37.678Z,20.78
2017-03-15T12:22:36.578Z,18.45
2017-03-15T12:23:35.141Z,18.85
2017-03-15T12:24:34.136Z,21.48
2017-03-15T12:25:33.063Z,20.63
2017-03-15T12:26:32.265Z,20.45
2017-03-15T12:27:31.178Z,19.70
2017-03-15T12:28:30.427Z,18.23
2017-03-15T12:29:29.337Z,18.97
2017-03-15T12:30:28.260Z,18.82
2017-03-15T12:31:26.800Z,18.18
2017-03-15T12:32:26.055Z,20.30
2017-03-15T12:33:24.975Z,18.03
2017-03-15T12:34:23.908Z,19.40
2017-03-15T12:35:22.827Z,18.80
2017-03-15T12:36:21.810Z,20.32
2017-03-15T12:37:20.313Z,20.25
2017-03-15T12:38:19.577Z,20.53
2017-03-15T12:39:18.553Z,20.83
2017-03-15T12:40:17.837Z,18.67
2017-03-15T12:41:16.783Z,19.98